PWSweather.com
Personal Weather Stations
Station Observations
SEAWX98122
Squire Park, Seattle, WA 98122

Squire ParkSeattle, WA 98122

Lat: 47.61174774, Lon: -122.31365204

Elevation: 324

Station Type: Davis Vantage Pro 2

https://www.seattleweather.org

Latest ConditionsUpdated 4:10:00 PM PDT Tuesday, Mar 26, 2019
Currently Today's Max Today's Min Today's Average
Temperature 61.2°F16.2°C 61.3°F16.3°C 42.8°F6.0°C 48.3°F9.1°C
Dew Point 35.3°F1.8°C 42.4°F5.8°C 34.3°F1.3°C 39.6°F4.2°C
Winds 1.2 mph SW1.9 kmh SW 9.2 mph -14.8 kmh - - 4.5 mph 7.2 kmh
Wind Gusts 2.3 mph3.7 kmh 16.1 mph25.9 kmh - -
Humidity 38% 89% 38% 74%
Pressure 30.05 in1017.6 mb 30.10 in1019.3 mb 29.99 in1015.6 mb -
Precipitation - 0.01 in0.3 mm - -
Hour Temp Dew Point Humidity Winds Wind Gusts Pressure Precip Precip Rate Daily Precip Total
04:10 PM 61.2°F16.2°C 35.3°F1.8°C 38% 1.2 mph SW1.9 kmh SW 2.3 mph3.7 kmh 30.05 in1017.6 mb - 0.00 in0.0 mm 0.01 in0.3 mm
04:00 PM 60.6°F15.9°C 35.5°F1.9°C 39% 4.6 mph SW7.4 kmh SW 6.9 mph11.1 kmh 30.05 in1017.6 mb - 0.00 in0.0 mm 0.01 in0.3 mm
03:55 PM 60.0°F15.6°C 35.6°F2.0°C 40% 1.2 mph W1.9 kmh W 3.5 mph5.6 kmh 30.05 in1017.6 mb - 0.00 in0.0 mm 0.01 in0.3 mm
03:50 PM 59.2°F15.1°C 36.1°F2.3°C 42% 2.3 mph W3.7 kmh W 5.8 mph9.3 kmh 30.05 in1017.6 mb - 0.00 in0.0 mm 0.01 in0.3 mm
03:45 PM 61.3°F16.3°C 36.1°F2.3°C 39% 3.5 mph SW5.6 kmh SW 5.8 mph9.3 kmh 30.05 in1017.6 mb - 0.00 in0.0 mm 0.01 in0.3 mm
03:40 PM 60.0°F15.6°C 36.8°F2.7°C 42% 3.5 mph SW5.6 kmh SW 6.9 mph11.1 kmh 30.05 in1017.6 mb - 0.00 in0.0 mm 0.01 in0.3 mm
03:35 PM 60.3°F15.7°C 36.4°F2.4°C 41% 3.5 mph SW5.6 kmh SW 4.6 mph7.4 kmh 30.06 in1017.9 mb - 0.00 in0.0 mm 0.01 in0.3 mm
03:30 PM 59.7°F15.4°C 35.3°F1.8°C 40% Calm Calm 1.2 mph1.9 kmh 30.05 in1017.6 mb - 0.00 in0.0 mm 0.01 in0.3 mm
03:25 PM 59.3°F15.2°C 34.3°F1.3°C 39% 1.2 mph W1.9 kmh W 2.3 mph3.7 kmh 30.05 in1017.6 mb - 0.00 in0.0 mm 0.01 in0.3 mm
03:20 PM 60.0°F15.6°C 34.9°F1.6°C 39% 4.6 mph SW7.4 kmh SW 6.9 mph11.1 kmh 30.06 in1017.9 mb - 0.00 in0.0 mm 0.01 in0.3 mm
03:15 PM 58.7°F14.8°C 35.6°F2.0°C 42% 4.6 mph SW7.4 kmh SW 5.8 mph9.3 kmh 30.06 in1017.9 mb - 0.00 in0.0 mm 0.01 in0.3 mm
03:10 PM 59.4°F15.2°C 35.1°F1.7°C 40% 3.5 mph SSW5.6 kmh SSW 4.6 mph7.4 kmh 30.06 in1017.9 mb - 0.00 in0.0 mm 0.01 in0.3 mm
03:00 PM 58.3°F14.6°C 35.3°F1.8°C 42% 2.3 mph SW3.7 kmh SW 4.6 mph7.4 kmh 30.07 in1018.3 mb - 0.00 in0.0 mm 0.01 in0.3 mm
02:55 PM 59.0°F15.0°C 34.7°F1.5°C 40% 4.6 mph S7.4 kmh S 8.1 mph13.0 kmh 30.06 in1017.9 mb - 0.00 in0.0 mm 0.01 in0.3 mm
02:50 PM 58.5°F14.7°C 37.2°F2.9°C 45% 2.3 mph WSW3.7 kmh WSW 3.5 mph5.6 kmh 30.06 in1017.9 mb - 0.00 in0.0 mm 0.01 in0.3 mm
02:45 PM 58.7°F14.8°C 35.6°F2.0°C 42% 4.6 mph SW7.4 kmh SW 5.8 mph9.3 kmh 30.06 in1017.9 mb - 0.00 in0.0 mm 0.01 in0.3 mm
02:40 PM 58.0°F14.4°C 36.2°F2.3°C 44% 6.9 mph S11.1 kmh S 11.5 mph18.5 kmh 30.07 in1018.3 mb - 0.00 in0.0 mm 0.01 in0.3 mm
02:35 PM 57.4°F14.1°C 37.3°F2.9°C 47% 3.5 mph WSW5.6 kmh WSW 4.6 mph7.4 kmh 30.06 in1017.9 mb - 0.00 in0.0 mm 0.01 in0.3 mm
02:30 PM 57.9°F14.4°C 37.3°F2.9°C 46% 6.9 mph SSW11.1 kmh SSW 11.5 mph18.5 kmh 30.07 in1018.3 mb - 0.00 in0.0 mm 0.01 in0.3 mm
02:25 PM 57.8°F14.3°C 37.1°F2.8°C 46% 3.5 mph SSW5.6 kmh SSW 10.4 mph16.7 kmh 30.07 in1018.3 mb - 0.00 in0.0 mm 0.01 in0.3 mm
02:20 PM 56.7°F13.7°C 36.7°F2.6°C 47% 5.8 mph SSW9.3 kmh SSW 9.2 mph14.8 kmh 30.07 in1018.3 mb - 0.00 in0.0 mm 0.01 in0.3 mm
02:15 PM 57.4°F14.1°C 37.3°F2.9°C 47% 3.5 mph SW5.6 kmh SW 4.6 mph7.4 kmh 30.07 in1018.3 mb - 0.00 in0.0 mm 0.01 in0.3 mm
02:10 PM 56.9°F13.8°C 36.3°F2.4°C 46% 5.8 mph SW9.3 kmh SW 10.4 mph16.7 kmh 30.08 in1018.6 mb - 0.00 in0.0 mm 0.01 in0.3 mm
02:00 PM 56.7°F13.7°C 37.2°F2.9°C 48% 4.6 mph S7.4 kmh S 6.9 mph11.1 kmh 30.07 in1018.3 mb - 0.00 in0.0 mm 0.01 in0.3 mm
01:55 PM 57.1°F13.9°C 38.1°F3.4°C 49% 5.8 mph S9.3 kmh S 8.1 mph13.0 kmh 30.08 in1018.6 mb - 0.00 in0.0 mm 0.01 in0.3 mm
01:50 PM 55.8°F13.2°C 37.9°F3.3°C 51% 3.5 mph SE5.6 kmh SE 4.6 mph7.4 kmh 30.08 in1018.6 mb - 0.00 in0.0 mm 0.01 in0.3 mm
01:45 PM 56.7°F13.7°C 37.3°F2.9°C 48% 4.6 mph SSW7.4 kmh SSW 9.2 mph14.8 kmh 30.08 in1018.6 mb - 0.00 in0.0 mm 0.01 in0.3 mm
01:40 PM 55.4°F13.0°C 38.0°F3.3°C 52% 4.6 mph SW7.4 kmh SW 8.1 mph13.0 kmh 30.08 in1018.6 mb - 0.00 in0.0 mm 0.01 in0.3 mm
01:35 PM 56.1°F13.4°C 38.7°F3.7°C 52% 2.3 mph S3.7 kmh S 5.8 mph9.3 kmh 30.08 in1018.6 mb - 0.00 in0.0 mm 0.01 in0.3 mm
01:30 PM 56.0°F13.3°C 39.1°F3.9°C 53% 4.6 mph SSW7.4 kmh SSW 8.1 mph13.0 kmh 30.08 in1018.6 mb - 0.00 in0.0 mm 0.01 in0.3 mm
01:25 PM 55.6°F13.1°C 39.2°F4.0°C 54% 5.8 mph S9.3 kmh S 10.4 mph16.7 kmh 30.09 in1019.0 mb - 0.00 in0.0 mm 0.01 in0.3 mm
01:20 PM 57.0°F13.9°C 41.0°F5.0°C 55% 2.3 mph WSW3.7 kmh WSW 6.9 mph11.1 kmh 30.08 in1018.6 mb - 0.00 in0.0 mm 0.01 in0.3 mm
01:15 PM 56.6°F13.7°C 40.6°F4.8°C 55% 3.5 mph S5.6 kmh S 11.5 mph18.5 kmh 30.08 in1018.6 mb - 0.00 in0.0 mm 0.01 in0.3 mm
01:10 PM 55.9°F13.3°C 39.5°F4.2°C 54% 2.3 mph SW3.7 kmh SW 3.5 mph5.6 kmh 30.08 in1018.6 mb - 0.00 in0.0 mm 0.01 in0.3 mm
01:00 PM 55.2°F12.9°C 39.7°F4.3°C 56% 5.8 mph SW9.3 kmh SW 9.2 mph14.8 kmh 30.08 in1018.6 mb - 0.00 in0.0 mm 0.01 in0.3 mm
12:55 PM 54.8°F12.7°C 39.4°F4.1°C 56% 8.1 mph SW13.0 kmh SW 10.4 mph16.7 kmh 30.08 in1018.6 mb - 0.00 in0.0 mm 0.01 in0.3 mm
12:50 PM 53.8°F12.1°C 38.9°F3.8°C 57% 4.6 mph SSW7.4 kmh SSW 5.8 mph9.3 kmh 30.08 in1018.6 mb - 0.00 in0.0 mm 0.01 in0.3 mm
12:45 PM 55.9°F13.3°C 40.0°F4.4°C 55% 5.8 mph SW9.3 kmh SW 10.4 mph16.7 kmh 30.09 in1019.0 mb - 0.00 in0.0 mm 0.01 in0.3 mm
12:40 PM 56.5°F13.6°C 42.4°F5.8°C 59% 3.5 mph SW5.6 kmh SW 4.6 mph7.4 kmh 30.09 in1019.0 mb - 0.00 in0.0 mm 0.01 in0.3 mm
12:35 PM 55.1°F12.8°C 41.0°F5.0°C 59% 6.9 mph SW11.1 kmh SW 8.1 mph13.0 kmh 30.09 in1019.0 mb - 0.00 in0.0 mm 0.01 in0.3 mm
12:30 PM 55.9°F13.3°C 41.3°F5.2°C 58% 5.8 mph SW9.3 kmh SW 9.2 mph14.8 kmh 30.09 in1019.0 mb - 0.00 in0.0 mm 0.01 in0.3 mm
12:25 PM 54.2°F12.3°C 41.4°F5.2°C 62% 6.9 mph WSW11.1 kmh WSW 12.7 mph20.4 kmh 30.09 in1019.0 mb - 0.00 in0.0 mm 0.01 in0.3 mm
12:20 PM 55.1°F12.8°C 41.4°F5.2°C 60% 5.8 mph SW9.3 kmh SW 11.5 mph18.5 kmh 30.09 in1019.0 mb - 0.00 in0.0 mm 0.01 in0.3 mm
12:15 PM 53.9°F12.2°C 41.2°F5.1°C 62% 5.8 mph SW9.3 kmh SW 8.1 mph13.0 kmh 30.09 in1019.0 mb - 0.00 in0.0 mm 0.01 in0.3 mm
12:10 PM 53.0°F11.7°C 41.2°F5.1°C 64% 4.6 mph SW7.4 kmh SW 9.2 mph14.8 kmh 30.09 in1019.0 mb - 0.00 in0.0 mm 0.01 in0.3 mm
12:00 PM 53.4°F11.9°C 40.3°F4.6°C 61% 6.9 mph SSW11.1 kmh SSW 11.5 mph18.5 kmh 30.10 in1019.3 mb - 0.00 in0.0 mm 0.01 in0.3 mm
11:55 AM 52.4°F11.3°C 40.6°F4.8°C 64% 5.8 mph SSW9.3 kmh SSW 9.2 mph14.8 kmh 30.10 in1019.3 mb - 0.00 in0.0 mm 0.01 in0.3 mm
11:50 AM 51.8°F11.0°C 40.0°F4.4°C 64% 6.9 mph S11.1 kmh S 11.5 mph18.5 kmh 30.09 in1019.0 mb - 0.00 in0.0 mm 0.01 in0.3 mm
11:45 AM 52.1°F11.2°C 40.3°F4.6°C 64% 6.9 mph S11.1 kmh S 11.5 mph18.5 kmh 30.09 in1019.0 mb - 0.00 in0.0 mm 0.01 in0.3 mm
11:40 AM 51.0°F10.6°C 39.6°F4.2°C 65% 6.9 mph SSW11.1 kmh SSW 10.4 mph16.7 kmh 30.09 in1019.0 mb - 0.00 in0.0 mm 0.01 in0.3 mm
11:35 AM 51.0°F10.6°C 39.7°F4.3°C 65% 5.8 mph SW9.3 kmh SW 8.1 mph13.0 kmh 30.09 in1019.0 mb - 0.00 in0.0 mm 0.01 in0.3 mm
11:30 AM 51.7°F10.9°C 39.9°F4.4°C 64% 4.6 mph SW7.4 kmh SW 9.2 mph14.8 kmh 30.09 in1019.0 mb - 0.00 in0.0 mm 0.01 in0.3 mm
11:25 AM 50.7°F10.4°C 40.1°F4.5°C 67% 5.8 mph SSW9.3 kmh SSW 6.9 mph11.1 kmh 30.09 in1019.0 mb - 0.00 in0.0 mm 0.01 in0.3 mm
11:20 AM 51.5°F10.8°C 40.1°F4.5°C 65% 5.8 mph S9.3 kmh S 8.1 mph13.0 kmh 30.09 in1019.0 mb - 0.00 in0.0 mm 0.01 in0.3 mm
11:15 AM 52.2°F11.2°C 41.2°F5.1°C 66% 5.8 mph SW9.3 kmh SW 8.1 mph13.0 kmh 30.09 in1019.0 mb - 0.00 in0.0 mm 0.01 in0.3 mm
11:10 AM 50.7°F10.4°C 40.5°F4.7°C 68% 4.6 mph SSW7.4 kmh SSW 8.1 mph13.0 kmh 30.09 in1019.0 mb - 0.00 in0.0 mm 0.01 in0.3 mm
11:00 AM 50.3°F10.2°C 40.5°F4.7°C 69% 4.6 mph S7.4 kmh S 6.9 mph11.1 kmh 30.09 in1019.0 mb - 0.00 in0.0 mm 0.01 in0.3 mm
10:55 AM 50.5°F10.3°C 40.7°F4.8°C 69% 5.8 mph S9.3 kmh S 11.5 mph18.5 kmh 30.09 in1019.0 mb - 0.00 in0.0 mm 0.01 in0.3 mm
10:50 AM 49.1°F9.5°C 39.3°F4.1°C 69% 6.9 mph S11.1 kmh S 11.5 mph18.5 kmh 30.09 in1019.0 mb - 0.00 in0.0 mm 0.01 in0.3 mm
10:45 AM 50.1°F10.1°C 40.3°F4.6°C 69% 9.2 mph SW14.8 kmh SW 12.7 mph20.4 kmh 30.09 in1019.0 mb - 0.00 in0.0 mm 0.01 in0.3 mm
10:40 AM 50.3°F10.2°C 40.1°F4.5°C 68% 6.9 mph SW11.1 kmh SW 11.5 mph18.5 kmh 30.09 in1019.0 mb - 0.00 in0.0 mm 0.01 in0.3 mm
10:35 AM 50.2°F10.1°C 40.4°F4.7°C 69% 4.6 mph SSW7.4 kmh SSW 8.1 mph13.0 kmh 30.09 in1019.0 mb - 0.00 in0.0 mm 0.01 in0.3 mm
10:30 AM 49.1°F9.5°C 39.7°F4.3°C 70% 6.9 mph S11.1 kmh S 11.5 mph18.5 kmh 30.09 in1019.0 mb - 0.00 in0.0 mm 0.01 in0.3 mm
10:25 AM 49.5°F9.7°C 40.5°F4.7°C 71% 5.8 mph SSE9.3 kmh SSE 11.5 mph18.5 kmh 30.09 in1019.0 mb - 0.00 in0.0 mm 0.01 in0.3 mm
10:20 AM 48.5°F9.2°C 39.9°F4.4°C 72% 4.6 mph SSW7.4 kmh SSW 5.8 mph9.3 kmh 30.09 in1019.0 mb - 0.00 in0.0 mm 0.01 in0.3 mm
10:15 AM 48.9°F9.4°C 39.9°F4.4°C 71% 5.8 mph SSW9.3 kmh SSW 10.4 mph16.7 kmh 30.09 in1019.0 mb - 0.00 in0.0 mm 0.01 in0.3 mm
10:10 AM 49.1°F9.5°C 41.2°F5.1°C 74% 4.6 mph S7.4 kmh S 4.6 mph7.4 kmh 30.09 in1019.0 mb - 0.00 in0.0 mm 0.01 in0.3 mm
10:00 AM 47.9°F8.8°C 40.7°F4.8°C 76% 6.9 mph SSW11.1 kmh SSW 10.4 mph16.7 kmh 30.09 in1019.0 mb - 0.00 in0.0 mm 0.01 in0.3 mm
09:55 AM 47.1°F8.4°C 40.3°F4.6°C 77% 5.8 mph S9.3 kmh S 11.5 mph18.5 kmh 30.09 in1019.0 mb - 0.00 in0.0 mm 0.01 in0.3 mm
09:50 AM 47.2°F8.4°C 40.4°F4.7°C 77% 5.8 mph SSW9.3 kmh SSW 6.9 mph11.1 kmh 30.09 in1019.0 mb - 0.00 in0.0 mm 0.01 in0.3 mm
09:45 AM 47.9°F8.8°C 40.7°F4.8°C 76% 4.6 mph S7.4 kmh S 10.4 mph16.7 kmh 30.09 in1019.0 mb - 0.00 in0.0 mm 0.01 in0.3 mm
09:40 AM 47.5°F8.6°C 40.6°F4.8°C 77% 4.6 mph SSW7.4 kmh SSW 9.2 mph14.8 kmh 30.09 in1019.0 mb - 0.00 in0.0 mm 0.01 in0.3 mm
09:35 AM 46.9°F8.3°C 40.1°F4.5°C 77% 4.6 mph S7.4 kmh S 5.8 mph9.3 kmh 30.09 in1019.0 mb - 0.00 in0.0 mm 0.01 in0.3 mm
09:30 AM 47.3°F8.5°C 40.1°F4.5°C 76% 6.9 mph SSW11.1 kmh SSW 8.1 mph13.0 kmh 30.09 in1019.0 mb - 0.00 in0.0 mm 0.01 in0.3 mm
09:25 AM 47.5°F8.6°C 41.0°F5.0°C 78% 5.8 mph SW9.3 kmh SW 10.4 mph16.7 kmh 30.08 in1018.6 mb - 0.00 in0.0 mm 0.01 in0.3 mm
09:20 AM 47.2°F8.4°C 40.7°F4.8°C 78% 4.6 mph S7.4 kmh S 5.8 mph9.3 kmh 30.08 in1018.6 mb - 0.00 in0.0 mm 0.01 in0.3 mm
09:15 AM 46.5°F8.1°C 40.4°F4.7°C 79% 5.8 mph S9.3 kmh S 9.2 mph14.8 kmh 30.08 in1018.6 mb - 0.00 in0.0 mm 0.01 in0.3 mm
09:10 AM 46.3°F7.9°C 40.1°F4.5°C 79% 5.8 mph SSW9.3 kmh SSW 10.4 mph16.7 kmh 30.08 in1018.6 mb - 0.00 in0.0 mm 0.01 in0.3 mm
09:00 AM 46.1°F7.8°C 40.3°F4.6°C 80% 5.8 mph SSW9.3 kmh SSW 9.2 mph14.8 kmh 30.08 in1018.6 mb - 0.00 in0.0 mm 0.01 in0.3 mm
08:55 AM 45.8°F7.7°C 40.3°F4.6°C 81% 4.6 mph SSW7.4 kmh SSW 11.5 mph18.5 kmh 30.08 in1018.6 mb - 0.00 in0.0 mm 0.01 in0.3 mm
08:50 AM 45.8°F7.7°C 40.0°F4.4°C 80% 8.1 mph SW13.0 kmh SW 16.1 mph25.9 kmh 30.08 in1018.6 mb - 0.00 in0.0 mm 0.01 in0.3 mm
08:45 AM 46.0°F7.8°C 40.5°F4.7°C 81% 5.8 mph SW9.3 kmh SW 13.8 mph22.2 kmh 30.08 in1018.6 mb - 0.00 in0.0 mm 0.01 in0.3 mm
08:40 AM 45.6°F7.6°C 40.1°F4.5°C 81% 3.5 mph SSW5.6 kmh SSW 4.6 mph7.4 kmh 30.08 in1018.6 mb - 0.00 in0.0 mm 0.01 in0.3 mm
08:35 AM 45.4°F7.4°C 39.9°F4.4°C 81% 4.6 mph SW7.4 kmh SW 4.6 mph7.4 kmh 30.08 in1018.6 mb - 0.00 in0.0 mm 0.01 in0.3 mm
08:30 AM 45.2°F7.3°C 40.0°F4.4°C 82% 2.3 mph S3.7 kmh S 3.5 mph5.6 kmh 30.08 in1018.6 mb - 0.00 in0.0 mm 0.01 in0.3 mm
08:25 AM 45.0°F7.2°C 39.8°F4.3°C 82% 4.6 mph SSW7.4 kmh SSW 8.1 mph13.0 kmh 30.08 in1018.6 mb - 0.00 in0.0 mm 0.01 in0.3 mm
08:20 AM 44.8°F7.1°C 39.6°F4.2°C 82% 2.3 mph SSW3.7 kmh SSW 4.6 mph7.4 kmh 30.08 in1018.6 mb - 0.00 in0.0 mm 0.01 in0.3 mm
08:15 AM 44.7°F7.1°C 39.9°F4.4°C 83% 4.6 mph SSW7.4 kmh SSW 5.8 mph9.3 kmh 30.08 in1018.6 mb - 0.00 in0.0 mm 0.01 in0.3 mm
08:10 AM 44.5°F6.9°C 39.7°F4.3°C 83% 5.8 mph S9.3 kmh S 11.5 mph18.5 kmh 30.08 in1018.6 mb - 0.00 in0.0 mm 0.01 in0.3 mm
08:00 AM 44.4°F6.9°C 39.5°F4.2°C 83% 4.6 mph S7.4 kmh S 9.2 mph14.8 kmh 30.07 in1018.3 mb - 0.00 in0.0 mm 0.01 in0.3 mm
07:55 AM 44.3°F6.8°C 39.8°F4.3°C 84% 3.5 mph SSW5.6 kmh SSW 8.1 mph13.0 kmh 30.07 in1018.3 mb - 0.00 in0.0 mm 0.01 in0.3 mm
07:50 AM 44.2°F6.8°C 39.6°F4.2°C 84% 2.3 mph S3.7 kmh S 4.6 mph7.4 kmh 30.07 in1018.3 mb - 0.00 in0.0 mm 0.01 in0.3 mm
07:45 AM 44.0°F6.7°C 39.8°F4.3°C 85% 5.8 mph S9.3 kmh S 9.2 mph14.8 kmh 30.07 in1018.3 mb - 0.00 in0.0 mm 0.01 in0.3 mm
07:40 AM 43.8°F6.6°C 39.6°F4.2°C 85% 2.3 mph SSW3.7 kmh SSW 5.8 mph9.3 kmh 30.07 in1018.3 mb - 0.00 in0.0 mm 0.01 in0.3 mm
07:35 AM 43.6°F6.4°C 39.4°F4.1°C 85% 5.8 mph S9.3 kmh S 9.2 mph14.8 kmh 30.07 in1018.3 mb - 0.00 in0.0 mm 0.01 in0.3 mm
07:30 AM 43.4°F6.3°C 39.2°F4.0°C 85% 5.8 mph S9.3 kmh S 9.2 mph14.8 kmh 30.07 in1018.3 mb - 0.00 in0.0 mm 0.01 in0.3 mm
07:25 AM 43.3°F6.3°C 39.4°F4.1°C 86% 3.5 mph S5.6 kmh S 5.8 mph9.3 kmh 30.07 in1018.3 mb - 0.00 in0.0 mm 0.01 in0.3 mm
07:20 AM 43.3°F6.3°C 39.4°F4.1°C 86% 3.5 mph S5.6 kmh S 4.6 mph7.4 kmh 30.07 in1018.3 mb - 0.00 in0.0 mm 0.01 in0.3 mm
07:15 AM 43.2°F6.2°C 39.6°F4.2°C 87% 4.6 mph S7.4 kmh S 5.8 mph9.3 kmh 30.07 in1018.3 mb - 0.00 in0.0 mm 0.01 in0.3 mm
07:10 AM 43.3°F6.3°C 39.7°F4.3°C 87% 3.5 mph S5.6 kmh S 5.8 mph9.3 kmh 30.07 in1018.3 mb - 0.00 in0.0 mm 0.01 in0.3 mm
07:00 AM 43.4°F6.3°C 39.8°F4.3°C 87% 3.5 mph SSE5.6 kmh SSE 4.6 mph7.4 kmh 30.07 in1018.3 mb - 0.00 in0.0 mm 0.01 in0.3 mm
06:55 AM 43.3°F6.3°C 39.4°F4.1°C 86% 4.6 mph S7.4 kmh S 4.6 mph7.4 kmh 30.07 in1018.3 mb - 0.00 in0.0 mm 0.01 in0.3 mm
06:50 AM 43.2°F6.2°C 39.5°F4.2°C 87% 6.9 mph S11.1 kmh S 10.4 mph16.7 kmh 30.07 in1018.3 mb - 0.00 in0.0 mm 0.01 in0.3 mm
06:45 AM 43.0°F6.1°C 39.7°F4.3°C 88% 4.6 mph SSW7.4 kmh SSW 9.2 mph14.8 kmh 30.07 in1018.3 mb - 0.00 in0.0 mm 0.01 in0.3 mm
06:40 AM 42.8°F6.0°C 39.5°F4.2°C 88% 4.6 mph S7.4 kmh S 11.5 mph18.5 kmh 30.06 in1017.9 mb - 0.00 in0.0 mm 0.01 in0.3 mm
06:35 AM 42.8°F6.0°C 39.5°F4.2°C 88% 3.5 mph S5.6 kmh S 6.9 mph11.1 kmh 30.06 in1017.9 mb - 0.00 in0.0 mm 0.01 in0.3 mm
06:30 AM 42.8°F6.0°C 39.5°F4.2°C 88% 3.5 mph SSE5.6 kmh SSE 4.6 mph7.4 kmh 30.06 in1017.9 mb - 0.00 in0.0 mm 0.01 in0.3 mm
06:25 AM 42.8°F6.0°C 39.5°F4.2°C 88% 3.5 mph S5.6 kmh S 3.5 mph5.6 kmh 30.06 in1017.9 mb - 0.00 in0.0 mm 0.01 in0.3 mm
06:20 AM 42.9°F6.1°C 39.6°F4.2°C 88% 3.5 mph SSE5.6 kmh SSE 3.5 mph5.6 kmh 30.06 in1017.9 mb - 0.00 in0.0 mm 0.01 in0.3 mm
06:15 AM 43.1°F6.2°C 39.8°F4.3°C 88% 2.3 mph SSE3.7 kmh SSE 4.6 mph7.4 kmh 30.05 in1017.6 mb - 0.00 in0.0 mm 0.01 in0.3 mm
06:10 AM 43.1°F6.2°C 39.8°F4.3°C 88% 3.5 mph S5.6 kmh S 5.8 mph9.3 kmh 30.05 in1017.6 mb - 0.00 in0.0 mm 0.01 in0.3 mm
06:00 AM 43.1°F6.2°C 39.5°F4.2°C 87% 3.5 mph S5.6 kmh S 4.6 mph7.4 kmh 30.06 in1017.9 mb - 0.00 in0.0 mm 0.01 in0.3 mm
05:55 AM 43.1°F6.2°C 39.5°F4.2°C 87% 2.3 mph S3.7 kmh S 5.8 mph9.3 kmh 30.06 in1017.9 mb - 0.00 in0.0 mm 0.01 in0.3 mm
05:50 AM 43.1°F6.2°C 39.5°F4.2°C 87% 4.6 mph S7.4 kmh S 6.9 mph11.1 kmh 30.05 in1017.6 mb - 0.00 in0.0 mm 0.01 in0.3 mm
05:45 AM 43.2°F6.2°C 39.6°F4.2°C 87% 2.3 mph SE3.7 kmh SE 4.6 mph7.4 kmh 30.06 in1017.9 mb - 0.00 in0.0 mm 0.01 in0.3 mm
05:40 AM 43.3°F6.3°C 39.7°F4.3°C 87% 2.3 mph SSW3.7 kmh SSW 5.8 mph9.3 kmh 30.05 in1017.6 mb - 0.00 in0.0 mm 0.01 in0.3 mm
05:35 AM 43.4°F6.3°C 39.8°F4.3°C 87% 2.3 mph SSW3.7 kmh SSW 3.5 mph5.6 kmh 30.06 in1017.9 mb - 0.00 in0.0 mm 0.01 in0.3 mm
05:30 AM 43.4°F6.3°C 39.8°F4.3°C 87% 3.5 mph SSW5.6 kmh SSW 8.1 mph13.0 kmh 30.05 in1017.6 mb - 0.00 in0.0 mm 0.01 in0.3 mm
05:25 AM 43.4°F6.3°C 39.8°F4.3°C 87% 3.5 mph SSE5.6 kmh SSE 9.2 mph14.8 kmh 30.05 in1017.6 mb - 0.00 in0.0 mm 0.01 in0.3 mm
05:20 AM 43.3°F6.3°C 39.7°F4.3°C 87% 3.5 mph S5.6 kmh S 6.9 mph11.1 kmh 30.05 in1017.6 mb - 0.00 in0.0 mm 0.01 in0.3 mm
05:15 AM 43.3°F6.3°C 40.0°F4.4°C 88% 2.3 mph S3.7 kmh S 6.9 mph11.1 kmh 30.05 in1017.6 mb - 0.00 in0.0 mm 0.01 in0.3 mm
05:10 AM 43.2°F6.2°C 39.9°F4.4°C 88% 4.6 mph SW7.4 kmh SW 8.1 mph13.0 kmh 30.05 in1017.6 mb - 0.00 in0.0 mm 0.01 in0.3 mm
05:00 AM 43.2°F6.2°C 40.1°F4.5°C 89% 4.6 mph S7.4 kmh S 6.9 mph11.1 kmh 30.04 in1017.3 mb - 0.00 in0.0 mm 0.01 in0.3 mm
04:55 AM 43.1°F6.2°C 40.1°F4.5°C 89% 2.3 mph SSW3.7 kmh SSW 5.8 mph9.3 kmh 30.05 in1017.6 mb - 0.00 in0.0 mm 0.01 in0.3 mm
04:50 AM 43.1°F6.2°C 40.1°F4.5°C 89% 3.5 mph SSE5.6 kmh SSE 4.6 mph7.4 kmh 30.04 in1017.3 mb - 0.00 in0.0 mm 0.01 in0.3 mm
04:45 AM 43.0°F6.1°C 40.0°F4.4°C 89% 3.5 mph SSE5.6 kmh SSE 4.6 mph7.4 kmh 30.04 in1017.3 mb - 0.00 in0.0 mm 0.01 in0.3 mm
04:40 AM 42.9°F6.1°C 39.9°F4.4°C 89% 2.3 mph S3.7 kmh S 3.5 mph5.6 kmh 30.04 in1017.3 mb - 0.00 in0.0 mm 0.01 in0.3 mm
04:35 AM 42.9°F6.1°C 39.9°F4.4°C 89% 3.5 mph S5.6 kmh S 4.6 mph7.4 kmh 30.04 in1017.3 mb - 0.00 in0.0 mm 0.01 in0.3 mm
04:30 AM 42.9°F6.1°C 39.6°F4.2°C 88% 2.3 mph S3.7 kmh S 3.5 mph5.6 kmh 30.04 in1017.3 mb - 0.00 in0.0 mm 0.01 in0.3 mm
04:25 AM 42.9°F6.1°C 39.6°F4.2°C 88% 1.2 mph SSW1.9 kmh SSW 2.3 mph3.7 kmh 30.04 in1017.3 mb - 0.00 in0.0 mm 0.01 in0.3 mm
04:20 AM 42.9°F6.1°C 39.6°F4.2°C 88% 2.3 mph S3.7 kmh S 4.6 mph7.4 kmh 30.04 in1017.3 mb - 0.00 in0.0 mm 0.01 in0.3 mm
04:15 AM 43.0°F6.1°C 39.7°F4.3°C 88% 1.2 mph SSE1.9 kmh SSE 5.8 mph9.3 kmh 30.03 in1016.9 mb - 0.00 in0.0 mm 0.01 in0.3 mm
04:10 AM 43.0°F6.1°C 39.4°F4.1°C 87% 5.8 mph SSE9.3 kmh SSE 8.1 mph13.0 kmh 30.04 in1017.3 mb - 0.00 in0.0 mm 0.01 in0.3 mm
04:00 AM 43.1°F6.2°C 39.5°F4.2°C 87% 5.8 mph SSW9.3 kmh SSW 9.2 mph14.8 kmh 30.03 in1016.9 mb - 0.00 in0.0 mm 0.01 in0.3 mm
03:55 AM 43.2°F6.2°C 39.3°F4.1°C 86% 4.6 mph SSW7.4 kmh SSW 8.1 mph13.0 kmh 30.03 in1016.9 mb - 0.00 in0.0 mm 0.01 in0.3 mm
03:50 AM 43.3°F6.3°C 39.4°F4.1°C 86% 2.3 mph S3.7 kmh S 4.6 mph7.4 kmh 30.03 in1016.9 mb - 0.00 in0.0 mm 0.01 in0.3 mm
03:45 AM 43.3°F6.3°C 39.4°F4.1°C 86% 6.9 mph SSW11.1 kmh SSW 10.4 mph16.7 kmh 30.03 in1016.9 mb - 0.00 in0.0 mm 0.01 in0.3 mm
03:40 AM 43.3°F6.3°C 39.4°F4.1°C 86% 6.9 mph S11.1 kmh S 13.8 mph22.2 kmh 30.03 in1016.9 mb - 0.00 in0.0 mm 0.01 in0.3 mm
03:35 AM 43.3°F6.3°C 39.1°F3.9°C 85% 4.6 mph S7.4 kmh S 6.9 mph11.1 kmh 30.03 in1016.9 mb - 0.01 in0.3 mm 0.01 in0.3 mm
03:30 AM 43.3°F6.3°C 39.4°F4.1°C 86% 6.9 mph SSW11.1 kmh SSW 8.1 mph13.0 kmh 30.03 in1016.9 mb - 0.01 in0.3 mm 0.01 in0.3 mm
03:25 AM 43.3°F6.3°C 39.4°F4.1°C 86% 6.9 mph S11.1 kmh S 11.5 mph18.5 kmh 30.03 in1016.9 mb - 0.01 in0.3 mm 0.01 in0.3 mm
03:20 AM 43.4°F6.3°C 39.5°F4.2°C 86% 4.6 mph SSW7.4 kmh SSW 5.8 mph9.3 kmh 30.03 in1016.9 mb - 0.01 in0.3 mm 0.01 in0.3 mm
03:15 AM 43.5°F6.4°C 39.6°F4.2°C 86% 2.3 mph SSE3.7 kmh SSE 3.5 mph5.6 kmh 30.03 in1016.9 mb - 0.01 in0.3 mm 0.01 in0.3 mm
03:10 AM 43.6°F6.4°C 39.7°F4.3°C 86% 4.6 mph S7.4 kmh S 6.9 mph11.1 kmh 30.03 in1016.9 mb - 0.01 in0.3 mm 0.01 in0.3 mm
03:00 AM 43.6°F6.4°C 40.0°F4.4°C 87% 4.6 mph S7.4 kmh S 5.8 mph9.3 kmh 30.03 in1016.9 mb - 0.01 in0.3 mm 0.01 in0.3 mm
02:55 AM 43.7°F6.5°C 40.1°F4.5°C 87% 3.5 mph S5.6 kmh S 4.6 mph7.4 kmh 30.03 in1016.9 mb - 0.01 in0.3 mm 0.01 in0.3 mm
02:50 AM 43.7°F6.5°C 40.1°F4.5°C 87% 6.9 mph S11.1 kmh S 9.2 mph14.8 kmh 30.03 in1016.9 mb - 0.01 in0.3 mm 0.01 in0.3 mm
02:45 AM 43.8°F6.6°C 40.2°F4.6°C 87% 5.8 mph S9.3 kmh S 11.5 mph18.5 kmh 30.02 in1016.6 mb - 0.01 in0.3 mm 0.01 in0.3 mm
02:40 AM 43.8°F6.6°C 39.9°F4.4°C 86% 5.8 mph S9.3 kmh S 8.1 mph13.0 kmh 30.02 in1016.6 mb - 0.01 in0.3 mm 0.01 in0.3 mm
02:35 AM 43.8°F6.6°C 39.9°F4.4°C 86% 5.8 mph S9.3 kmh S 9.2 mph14.8 kmh 30.02 in1016.6 mb - 0.00 in0.0 mm 0.00 in0.0 mm
02:30 AM 43.8°F6.6°C 39.9°F4.4°C 86% 4.6 mph S7.4 kmh S 6.9 mph11.1 kmh 30.02 in1016.6 mb - 0.00 in0.0 mm 0.00 in0.0 mm
02:25 AM 43.9°F6.6°C 40.0°F4.4°C 86% 6.9 mph S11.1 kmh S 10.4 mph16.7 kmh 30.02 in1016.6 mb - 0.00 in0.0 mm 0.00 in0.0 mm
02:20 AM 44.0°F6.7°C 40.4°F4.7°C 87% 5.8 mph S9.3 kmh S 11.5 mph18.5 kmh 30.02 in1016.6 mb - 0.00 in0.0 mm 0.00 in0.0 mm
02:15 AM 44.2°F6.8°C 40.6°F4.8°C 87% 4.6 mph S7.4 kmh S 9.2 mph14.8 kmh 30.02 in1016.6 mb - 0.00 in0.0 mm 0.00 in0.0 mm
02:10 AM 44.3°F6.8°C 40.7°F4.8°C 87% 5.8 mph S9.3 kmh S 11.5 mph18.5 kmh 30.01 in1016.3 mb - 0.00 in0.0 mm 0.00 in0.0 mm
02:00 AM 44.7°F7.1°C 41.0°F5.0°C 87% 8.1 mph S13.0 kmh S 11.5 mph18.5 kmh 30.01 in1016.3 mb - 0.00 in0.0 mm 0.00 in0.0 mm
01:55 AM 44.8°F7.1°C 41.1°F5.1°C 87% 5.8 mph SSW9.3 kmh SSW 9.2 mph14.8 kmh 30.01 in1016.3 mb - 0.00 in0.0 mm 0.00 in0.0 mm
01:50 AM 44.9°F7.2°C 40.9°F4.9°C 86% 5.8 mph S9.3 kmh S 8.1 mph13.0 kmh 30.01 in1016.3 mb - 0.00 in0.0 mm 0.00 in0.0 mm
01:45 AM 44.9°F7.2°C 41.0°F5.0°C 86% 8.1 mph SSW13.0 kmh SSW 11.5 mph18.5 kmh 30.00 in1015.9 mb - 0.00 in0.0 mm 0.00 in0.0 mm
01:40 AM 45.0°F7.2°C 41.1°F5.1°C 86% 5.8 mph S9.3 kmh S 8.1 mph13.0 kmh 30.00 in1015.9 mb - 0.00 in0.0 mm 0.00 in0.0 mm
01:35 AM 45.1°F7.3°C 40.9°F4.9°C 85% 4.6 mph SSW7.4 kmh SSW 9.2 mph14.8 kmh 30.00 in1015.9 mb - 0.00 in0.0 mm 0.00 in0.0 mm
01:30 AM 45.1°F7.3°C 40.9°F4.9°C 85% 3.5 mph S5.6 kmh S 10.4 mph16.7 kmh 30.00 in1015.9 mb - 0.00 in0.0 mm 0.00 in0.0 mm
01:25 AM 45.1°F7.3°C 40.9°F4.9°C 85% 6.9 mph S11.1 kmh S 9.2 mph14.8 kmh 30.00 in1015.9 mb - 0.00 in0.0 mm 0.00 in0.0 mm
01:20 AM 45.1°F7.3°C 40.9°F4.9°C 85% 4.6 mph SSW7.4 kmh SSW 10.4 mph16.7 kmh 30.00 in1015.9 mb - 0.00 in0.0 mm 0.00 in0.0 mm
01:15 AM 45.0°F7.2°C 41.1°F5.1°C 86% 4.6 mph S7.4 kmh S 8.1 mph13.0 kmh 30.00 in1015.9 mb - 0.00 in0.0 mm 0.00 in0.0 mm
01:10 AM 45.0°F7.2°C 41.4°F5.2°C 87% 4.6 mph SSW7.4 kmh SSW 9.2 mph14.8 kmh 30.00 in1015.9 mb - 0.00 in0.0 mm 0.00 in0.0 mm
01:00 AM 44.9°F7.2°C 41.6°F5.3°C 88% 5.8 mph S9.3 kmh S 10.4 mph16.7 kmh 30.00 in1015.9 mb - 0.00 in0.0 mm 0.00 in0.0 mm
12:55 AM 44.9°F7.2°C 41.5°F5.3°C 88% 2.3 mph S3.7 kmh S 5.8 mph9.3 kmh 30.00 in1015.9 mb - 0.00 in0.0 mm 0.00 in0.0 mm
12:50 AM 44.9°F7.2°C 41.5°F5.3°C 88% 3.5 mph S5.6 kmh S 3.5 mph5.6 kmh 30.00 in1015.9 mb - 0.00 in0.0 mm 0.00 in0.0 mm
12:45 AM 44.9°F7.2°C 41.6°F5.3°C 88% 3.5 mph S5.6 kmh S 4.6 mph7.4 kmh 30.00 in1015.9 mb - 0.00 in0.0 mm 0.00 in0.0 mm
12:40 AM 44.9°F7.2°C 41.6°F5.3°C 88% 2.3 mph S3.7 kmh S 3.5 mph5.6 kmh 30.00 in1015.9 mb - 0.00 in0.0 mm 0.00 in0.0 mm
12:35 AM 44.7°F7.1°C 41.4°F5.2°C 88% 3.5 mph SSE5.6 kmh SSE 8.1 mph13.0 kmh 30.00 in1015.9 mb - 0.00 in0.0 mm 0.00 in0.0 mm
12:30 AM 44.7°F7.1°C 41.4°F5.2°C 88% 3.5 mph SSE5.6 kmh SSE 3.5 mph5.6 kmh 30.00 in1015.9 mb - 0.00 in0.0 mm 0.00 in0.0 mm
12:25 AM 44.7°F7.1°C 41.7°F5.4°C 89% 5.8 mph S9.3 kmh S 9.2 mph14.8 kmh 30.00 in1015.9 mb - 0.00 in0.0 mm 0.00 in0.0 mm
12:20 AM 44.6°F7.0°C 41.5°F5.3°C 89% 2.3 mph SSE3.7 kmh SSE 4.6 mph7.4 kmh 29.99 in1015.6 mb - 0.00 in0.0 mm 0.00 in0.0 mm
12:15 AM 44.5°F6.9°C 41.5°F5.3°C 89% 2.3 mph SSE3.7 kmh SSE 5.8 mph9.3 kmh 29.99 in1015.6 mb - 0.00 in0.0 mm 0.00 in0.0 mm
12:10 AM 44.5°F6.9°C 41.5°F5.3°C 89% 1.2 mph SSE1.9 kmh SSE 4.6 mph7.4 kmh 29.99 in1015.6 mb - 0.00 in0.0 mm 0.00 in0.0 mm
12:00 AM 44.5°F6.9°C 41.1°F5.1°C 88% 2.3 mph S3.7 kmh S 3.5 mph5.6 kmh 29.99 in1015.6 mb - 0.00 in0.0 mm 0.00 in0.0 mm